sensor_id;sensor_type;location;lat;lon;timestamp;P1;durP1;ratioP1;P2;durP2;ratioP2
56718;SDS011;42597;40.636;0.278;2022-09-12T00:00:42;6.55;;;4.40;;
56718;SDS011;42597;40.636;0.278;2022-09-12T00:03:07;7.47;;;4.40;;
56718;SDS011;42597;40.636;0.278;2022-09-12T00:05:33;6.60;;;4.65;;
56718;SDS011;42597;40.636;0.278;2022-09-12T00:08:04;11.02;;;5.07;;
56718;SDS011;42597;40.636;0.278;2022-09-12T00:10:30;6.00;;;4.22;;
56718;SDS011;42597;40.636;0.278;2022-09-12T00:12:56;7.95;;;4.10;;
56718;SDS011;42597;40.636;0.278;2022-09-12T00:15:21;8.20;;;4.25;;
56718;SDS011;42597;40.636;0.278;2022-09-12T00:17:47;7.65;;;5.13;;
56718;SDS011;42597;40.636;0.278;2022-09-12T00:20:12;7.93;;;4.85;;
56718;SDS011;42597;40.636;0.278;2022-09-12T00:22:38;5.65;;;3.97;;
56718;SDS011;42597;40.636;0.278;2022-09-12T00:25:04;5.82;;;4.25;;
56718;SDS011;42597;40.636;0.278;2022-09-12T00:27:30;7.72;;;4.18;;
56718;SDS011;42597;40.636;0.278;2022-09-12T00:29:56;5.28;;;3.88;;
56718;SDS011;42597;40.636;0.278;2022-09-12T00:32:21;8.95;;;5.00;;
56718;SDS011;42597;40.636;0.278;2022-09-12T00:34:47;7.70;;;4.32;;
56718;SDS011;42597;40.636;0.278;2022-09-12T00:37:13;6.25;;;4.88;;
56718;SDS011;42597;40.636;0.278;2022-09-12T00:39:38;7.57;;;5.13;;
56718;SDS011;42597;40.636;0.278;2022-09-12T00:42:04;5.45;;;4.32;;
56718;SDS011;42597;40.636;0.278;2022-09-12T00:49:27;6.47;;;3.67;;
56718;SDS011;42597;40.636;0.278;2022-09-12T00:51:54;9.90;;;4.50;;
56718;SDS011;42597;40.636;0.278;2022-09-12T00:54:26;6.97;;;4.45;;
56718;SDS011;42597;40.636;0.278;2022-09-12T00:56:57;7.72;;;4.03;;
56718;SDS011;42597;40.636;0.278;2022-09-12T00:59:31;7.25;;;3.90;;
56718;SDS011;42597;40.636;0.278;2022-09-12T01:02:05;8.68;;;4.32;;
56718;SDS011;42597;40.636;0.278;2022-09-12T01:04:31;7.35;;;3.38;;
56718;SDS011;42597;40.636;0.278;2022-09-12T01:06:59;6.18;;;3.65;;
56718;SDS011;42597;40.636;0.278;2022-09-12T01:09:27;9.43;;;4.05;;
56718;SDS011;42597;40.636;0.278;2022-09-12T01:11:53;10.20;;;4.00;;
56718;SDS011;42597;40.636;0.278;2022-09-12T01:14:19;6.03;;;3.70;;
56718;SDS011;42597;40.636;0.278;2022-09-12T01:16:45;6.05;;;3.85;;
56718;SDS011;42597;40.636;0.278;2022-09-12T01:35:34;5.13;;;3.28;;
56718;SDS011;42597;40.636;0.278;2022-09-12T01:49:20;6.32;;;3.20;;
56718;SDS011;42597;40.636;0.278;2022-09-12T01:54:24;5.90;;;3.15;;
56718;SDS011;42597;40.636;0.278;2022-09-12T01:57:28;6.70;;;3.25;;
56718;SDS011;42597;40.636;0.278;2022-09-12T02:00:03;5.00;;;3.45;;
56718;SDS011;42597;40.636;0.278;2022-09-12T02:07:55;6.25;;;3.50;;
56718;SDS011;42597;40.636;0.278;2022-09-12T02:16:30;5.07;;;2.90;;
56718;SDS011;42597;40.636;0.278;2022-09-12T02:19:36;7.73;;;3.17;;
56718;SDS011;42597;40.636;0.278;2022-09-12T02:21:59;5.38;;;3.25;;
56718;SDS011;42597;40.636;0.278;2022-09-12T02:24:35;5.00;;;3.08;;
56718;SDS011;42597;40.636;0.278;2022-09-12T02:29:45;6.53;;;3.20;;
56718;SDS011;42597;40.636;0.278;2022-09-12T02:34:49;6.30;;;3.00;;
56718;SDS011;42597;40.636;0.278;2022-09-12T02:38:11;6.40;;;2.58;;
56718;SDS011;42597;40.636;0.278;2022-09-12T02:40:11;5.15;;;2.70;;
56718;SDS011;42597;40.636;0.278;2022-09-12T02:42:38;6.93;;;3.03;;
56718;SDS011;42597;40.636;0.278;2022-09-12T02:45:04;5.47;;;2.83;;
56718;SDS011;42597;40.636;0.278;2022-09-12T02:47:31;5.22;;;2.13;;
56718;SDS011;42597;40.636;0.278;2022-09-12T02:50:01;4.25;;;2.47;;
56718;SDS011;42597;40.636;0.278;2022-09-12T02:52:29;8.60;;;2.85;;
56718;SDS011;42597;40.636;0.278;2022-09-12T02:54:56;5.32;;;2.70;;
56718;SDS011;42597;40.636;0.278;2022-09-12T02:57:22;4.63;;;2.20;;
56718;SDS011;42597;40.636;0.278;2022-09-12T02:59:48;6.22;;;2.35;;
56718;SDS011;42597;40.636;0.278;2022-09-12T03:04:54;5.53;;;2.60;;
56718;SDS011;42597;40.636;0.278;2022-09-12T03:15:50;3.67;;;2.25;;
56718;SDS011;42597;40.636;0.278;2022-09-12T03:21:53;4.75;;;2.17;;
56718;SDS011;42597;40.636;0.278;2022-09-12T03:24:37;4.72;;;2.20;;
56718;SDS011;42597;40.636;0.278;2022-09-12T03:29:46;3.70;;;2.35;;
56718;SDS011;42597;40.636;0.278;2022-09-12T03:32:13;7.30;;;2.20;;
56718;SDS011;42597;40.636;0.278;2022-09-12T03:34:39;4.07;;;1.98;;
56718;SDS011;42597;40.636;0.278;2022-09-12T03:37:05;4.85;;;2.25;;
56718;SDS011;42597;40.636;0.278;2022-09-12T03:39:31;3.03;;;1.83;;
56718;SDS011;42597;40.636;0.278;2022-09-12T03:41:56;4.57;;;2.58;;
56718;SDS011;42597;40.636;0.278;2022-09-12T03:44:22;3.55;;;1.85;;
56718;SDS011;42597;40.636;0.278;2022-09-12T03:46:48;4.55;;;2.25;;
56718;SDS011;42597;40.636;0.278;2022-09-12T03:49:14;6.30;;;2.63;;
56718;SDS011;42597;40.636;0.278;2022-09-12T03:51:40;5.35;;;2.70;;
56718;SDS011;42597;40.636;0.278;2022-09-12T03:54:07;5.40;;;2.08;;
56718;SDS011;42597;40.636;0.278;2022-09-12T03:56:33;3.50;;;2.30;;
56718;SDS011;42597;40.636;0.278;2022-09-12T03:58:59;5.13;;;2.08;;
56718;SDS011;42597;40.636;0.278;2022-09-12T04:01:24;5.05;;;2.53;;
56718;SDS011;42597;40.636;0.278;2022-09-12T04:03:50;4.93;;;2.28;;
56718;SDS011;42597;40.636;0.278;2022-09-12T04:06:18;8.13;;;2.30;;
56718;SDS011;42597;40.636;0.278;2022-09-12T04:08:52;4.18;;;1.95;;
56718;SDS011;42597;40.636;0.278;2022-09-12T04:11:19;4.40;;;2.40;;
56718;SDS011;42597;40.636;0.278;2022-09-12T04:13:46;5.70;;;2.72;;
56718;SDS011;42597;40.636;0.278;2022-09-12T04:16:12;4.95;;;1.98;;
56718;SDS011;42597;40.636;0.278;2022-09-12T04:18:39;8.57;;;3.33;;
56718;SDS011;42597;40.636;0.278;2022-09-12T04:21:06;3.03;;;2.00;;
56718;SDS011;42597;40.636;0.278;2022-09-12T04:23:34;5.65;;;2.20;;
56718;SDS011;42597;40.636;0.278;2022-09-12T04:26:00;6.50;;;2.03;;
56718;SDS011;42597;40.636;0.278;2022-09-12T04:28:27;3.28;;;2.03;;
56718;SDS011;42597;40.636;0.278;2022-09-12T04:30:54;4.30;;;1.90;;
56718;SDS011;42597;40.636;0.278;2022-09-12T04:33:20;6.32;;;2.53;;
56718;SDS011;42597;40.636;0.278;2022-09-12T04:35:46;3.67;;;2.03;;
56718;SDS011;42597;40.636;0.278;2022-09-12T04:38:12;4.85;;;2.03;;
56718;SDS011;42597;40.636;0.278;2022-09-12T04:40:38;3.30;;;1.90;;
56718;SDS011;42597;40.636;0.278;2022-09-12T04:43:04;4.43;;;2.00;;
56718;SDS011;42597;40.636;0.278;2022-09-12T04:45:31;4.43;;;2.22;;
56718;SDS011;42597;40.636;0.278;2022-09-12T04:47:56;4.45;;;2.50;;
56718;SDS011;42597;40.636;0.278;2022-09-12T04:50:22;6.55;;;1.90;;
56718;SDS011;42597;40.636;0.278;2022-09-12T04:52:49;5.65;;;2.13;;
56718;SDS011;42597;40.636;0.278;2022-09-12T04:55:15;4.22;;;2.00;;
56718;SDS011;42597;40.636;0.278;2022-09-12T04:57:41;6.30;;;2.22;;
56718;SDS011;42597;40.636;0.278;2022-09-12T05:00:07;4.32;;;2.10;;
56718;SDS011;42597;40.636;0.278;2022-09-12T05:02:37;4.40;;;2.35;;
56718;SDS011;42597;40.636;0.278;2022-09-12T05:05:03;4.22;;;1.73;;
56718;SDS011;42597;40.636;0.278;2022-09-12T05:07:28;3.60;;;1.92;;
56718;SDS011;42597;40.636;0.278;2022-09-12T05:09:54;4.72;;;2.00;;
56718;SDS011;42597;40.636;0.278;2022-09-12T05:12:19;3.67;;;1.65;;
56718;SDS011;42597;40.636;0.278;2022-09-12T05:14:45;3.67;;;1.95;;
56718;SDS011;42597;40.636;0.278;2022-09-12T05:17:11;5.13;;;1.98;;
56718;SDS011;42597;40.636;0.278;2022-09-12T05:19:36;4.00;;;1.83;;
56718;SDS011;42597;40.636;0.278;2022-09-12T05:22:02;3.58;;;1.65;;
56718;SDS011;42597;40.636;0.278;2022-09-12T05:24:29;4.95;;;2.20;;
56718;SDS011;42597;40.636;0.278;2022-09-12T05:26:54;3.03;;;1.48;;
56718;SDS011;42597;40.636;0.278;2022-09-12T05:29:20;8.10;;;2.03;;
56718;SDS011;42597;40.636;0.278;2022-09-12T05:31:46;5.10;;;2.08;;
56718;SDS011;42597;40.636;0.278;2022-09-12T05:34:14;9.65;;;2.40;;
56718;SDS011;42597;40.636;0.278;2022-09-12T05:36:39;13.70;;;2.65;;
56718;SDS011;42597;40.636;0.278;2022-09-12T05:39:05;5.28;;;2.30;;
56718;SDS011;42597;40.636;0.278;2022-09-12T05:41:31;7.00;;;2.38;;
56718;SDS011;42597;40.636;0.278;2022-09-12T05:44:02;6.80;;;3.00;;
56718;SDS011;42597;40.636;0.278;2022-09-12T05:46:30;4.00;;;2.35;;
56718;SDS011;42597;40.636;0.278;2022-09-12T05:49:18;5.28;;;3.10;;
56718;SDS011;42597;40.636;0.278;2022-09-12T05:51:45;10.40;;;4.18;;
56718;SDS011;42597;40.636;0.278;2022-09-12T05:54:11;6.78;;;5.00;;
56718;SDS011;42597;40.636;0.278;2022-09-12T05:56:40;8.68;;;4.57;;
56718;SDS011;42597;40.636;0.278;2022-09-12T05:59:09;14.77;;;7.10;;
56718;SDS011;42597;40.636;0.278;2022-09-12T06:01:39;11.18;;;4.95;;
56718;SDS011;42597;40.636;0.278;2022-09-12T06:04:06;7.45;;;3.00;;
56718;SDS011;42597;40.636;0.278;2022-09-12T06:06:34;5.75;;;2.13;;
56718;SDS011;42597;40.636;0.278;2022-09-12T06:09:02;7.53;;;2.45;;
56718;SDS011;42597;40.636;0.278;2022-09-12T06:11:30;3.40;;;2.05;;
56718;SDS011;42597;40.636;0.278;2022-09-12T06:13:57;5.55;;;2.08;;
56718;SDS011;42597;40.636;0.278;2022-09-12T06:16:33;3.20;;;1.60;;
56718;SDS011;42597;40.636;0.278;2022-09-12T06:19:03;5.07;;;2.13;;
56718;SDS011;42597;40.636;0.278;2022-09-12T06:21:31;4.38;;;1.95;;
56718;SDS011;42597;40.636;0.278;2022-09-12T06:23:59;6.45;;;2.22;;
56718;SDS011;42597;40.636;0.278;2022-09-12T06:26:26;9.32;;;3.30;;
56718;SDS011;42597;40.636;0.278;2022-09-12T06:28:52;6.07;;;2.95;;
56718;SDS011;42597;40.636;0.278;2022-09-12T06:31:20;5.25;;;2.25;;
56718;SDS011;42597;40.636;0.278;2022-09-12T06:33:53;4.25;;;2.70;;
56718;SDS011;42597;40.636;0.278;2022-09-12T06:36:21;4.78;;;2.42;;
56718;SDS011;42597;40.636;0.278;2022-09-12T06:38:58;5.72;;;2.92;;
56718;SDS011;42597;40.636;0.278;2022-09-12T06:41:28;5.55;;;2.97;;
56718;SDS011;42597;40.636;0.278;2022-09-12T06:43:55;6.53;;;2.57;;
56718;SDS011;42597;40.636;0.278;2022-09-12T06:46:21;10.65;;;2.42;;
56718;SDS011;42597;40.636;0.278;2022-09-12T06:48:47;5.30;;;2.22;;
56718;SDS011;42597;40.636;0.278;2022-09-12T06:51:14;4.75;;;2.42;;
56718;SDS011;42597;40.636;0.278;2022-09-12T06:53:41;4.75;;;2.03;;
56718;SDS011;42597;40.636;0.278;2022-09-12T06:58:37;7.90;;;2.88;;
56718;SDS011;42597;40.636;0.278;2022-09-12T07:01:07;5.20;;;2.53;;
56718;SDS011;42597;40.636;0.278;2022-09-12T07:03:37;7.18;;;2.38;;
56718;SDS011;42597;40.636;0.278;2022-09-12T07:06:04;4.43;;;2.30;;
56718;SDS011;42597;40.636;0.278;2022-09-12T07:08:32;3.95;;;1.98;;
56718;SDS011;42597;40.636;0.278;2022-09-12T07:10:59;5.32;;;2.45;;
56718;SDS011;42597;40.636;0.278;2022-09-12T07:13:32;4.65;;;2.17;;
56718;SDS011;42597;40.636;0.278;2022-09-12T07:16:02;5.18;;;2.28;;
56718;SDS011;42597;40.636;0.278;2022-09-12T07:18:28;8.23;;;3.15;;
56718;SDS011;42597;40.636;0.278;2022-09-12T07:20:53;8.27;;;2.63;;
56718;SDS011;42597;40.636;0.278;2022-09-12T07:23:19;6.97;;;2.65;;
56718;SDS011;42597;40.636;0.278;2022-09-12T07:25:54;4.38;;;2.22;;
56718;SDS011;42597;40.636;0.278;2022-09-12T07:28:22;8.52;;;3.30;;
56718;SDS011;42597;40.636;0.278;2022-09-12T07:30:52;7.03;;;2.97;;
56718;SDS011;42597;40.636;0.278;2022-09-12T07:33:27;5.45;;;2.33;;
56718;SDS011;42597;40.636;0.278;2022-09-12T07:35:53;4.80;;;2.13;;
56718;SDS011;42597;40.636;0.278;2022-09-12T07:38:19;6.25;;;3.00;;
56718;SDS011;42597;40.636;0.278;2022-09-12T07:40:45;4.85;;;2.63;;
56718;SDS011;42597;40.636;0.278;2022-09-12T07:43:11;4.55;;;2.90;;
56718;SDS011;42597;40.636;0.278;2022-09-12T07:45:37;14.75;;;4.82;;
56718;SDS011;42597;40.636;0.278;2022-09-12T07:50:31;11.50;;;6.97;;
56718;SDS011;42597;40.636;0.278;2022-09-12T07:52:57;10.15;;;7.38;;
56718;SDS011;42597;40.636;0.278;2022-09-12T07:55:23;9.35;;;2.88;;
56718;SDS011;42597;40.636;0.278;2022-09-12T07:57:52;10.85;;;6.38;;
56718;SDS011;42597;40.636;0.278;2022-09-12T08:00:17;14.20;;;8.00;;
56718;SDS011;42597;40.636;0.278;2022-09-12T08:02:43;9.85;;;7.25;;
56718;SDS011;42597;40.636;0.278;2022-09-12T08:05:09;11.05;;;4.20;;
56718;SDS011;42597;40.636;0.278;2022-09-12T08:07:34;13.35;;;6.70;;
56718;SDS011;42597;40.636;0.278;2022-09-12T08:10:00;10.70;;;6.47;;
56718;SDS011;42597;40.636;0.278;2022-09-12T08:12:26;9.40;;;6.60;;
56718;SDS011;42597;40.636;0.278;2022-09-12T08:14:52;11.80;;;7.25;;
56718;SDS011;42597;40.636;0.278;2022-09-12T08:17:18;9.55;;;5.93;;
56718;SDS011;42597;40.636;0.278;2022-09-12T08:19:44;10.35;;;5.45;;
56718;SDS011;42597;40.636;0.278;2022-09-12T08:22:10;8.73;;;5.28;;
56718;SDS011;42597;40.636;0.278;2022-09-12T08:24:36;16.50;;;6.38;;
56718;SDS011;42597;40.636;0.278;2022-09-12T08:27:04;13.23;;;6.00;;
56718;SDS011;42597;40.636;0.278;2022-09-12T08:29:30;10.63;;;6.35;;
56718;SDS011;42597;40.636;0.278;2022-09-12T08:31:55;9.82;;;5.38;;
56718;SDS011;42597;40.636;0.278;2022-09-12T08:34:21;8.50;;;5.22;;
56718;SDS011;42597;40.636;0.278;2022-09-12T08:36:48;6.55;;;4.40;;
56718;SDS011;42597;40.636;0.278;2022-09-12T08:39:15;11.93;;;6.32;;
56718;SDS011;42597;40.636;0.278;2022-09-12T08:41:48;8.48;;;6.32;;
56718;SDS011;42597;40.636;0.278;2022-09-12T08:44:41;12.20;;;5.85;;
56718;SDS011;42597;40.636;0.278;2022-09-12T08:47:32;11.20;;;5.80;;
56718;SDS011;42597;40.636;0.278;2022-09-12T08:58:00;13.40;;;6.20;;
56718;SDS011;42597;40.636;0.278;2022-09-12T09:00:46;12.20;;;6.30;;
56718;SDS011;42597;40.636;0.278;2022-09-12T09:14:38;7.30;;;4.78;;
56718;SDS011;42597;40.636;0.278;2022-09-12T09:17:38;7.60;;;4.75;;
56718;SDS011;42597;40.636;0.278;2022-09-12T09:22:42;7.15;;;5.20;;
56718;SDS011;42597;40.636;0.278;2022-09-12T09:25:15;12.45;;;5.25;;
56718;SDS011;42597;40.636;0.278;2022-09-12T09:27:49;8.43;;;5.13;;
56718;SDS011;42597;40.636;0.278;2022-09-12T09:30:17;12.27;;;4.72;;
56718;SDS011;42597;40.636;0.278;2022-09-12T09:32:49;8.40;;;5.03;;
56718;SDS011;42597;40.636;0.278;2022-09-12T09:43:08;11.00;;;4.95;;
56718;SDS011;42597;40.636;0.278;2022-09-12T09:45:44;7.82;;;4.55;;
56718;SDS011;42597;40.636;0.278;2022-09-12T09:51:10;8.43;;;5.47;;
56718;SDS011;42597;40.636;0.278;2022-09-12T09:53:47;7.28;;;4.55;;
56718;SDS011;42597;40.636;0.278;2022-09-12T09:56:29;9.15;;;5.05;;
56718;SDS011;42597;40.636;0.278;2022-09-12T10:04:38;8.77;;;4.95;;
56718;SDS011;42597;40.636;0.278;2022-09-12T10:07:05;12.15;;;5.75;;
56718;SDS011;42597;40.636;0.278;2022-09-12T10:09:41;12.20;;;5.45;;
56718;SDS011;42597;40.636;0.278;2022-09-12T10:12:26;9.55;;;5.68;;
56718;SDS011;42597;40.636;0.278;2022-09-12T10:15:03;8.90;;;5.57;;
56718;SDS011;42597;40.636;0.278;2022-09-12T10:17:42;7.63;;;5.82;;
56718;SDS011;42597;40.636;0.278;2022-09-12T10:23:37;8.40;;;5.38;;
56718;SDS011;42597;40.636;0.278;2022-09-12T10:26:00;10.32;;;5.18;;
56718;SDS011;42597;40.636;0.278;2022-09-12T10:28:50;11.05;;;5.07;;
56718;SDS011;42597;40.636;0.278;2022-09-12T10:31:22;7.27;;;4.03;;
56718;SDS011;42597;40.636;0.278;2022-09-12T10:33:53;6.88;;;4.07;;
56718;SDS011;42597;40.636;0.278;2022-09-12T10:36:21;8.30;;;4.65;;
56718;SDS011;42597;40.636;0.278;2022-09-12T10:38:52;12.45;;;5.05;;
56718;SDS011;42597;40.636;0.278;2022-09-12T10:41:20;10.05;;;4.75;;
56718;SDS011;42597;40.636;0.278;2022-09-12T10:43:46;6.95;;;4.47;;
56718;SDS011;42597;40.636;0.278;2022-09-12T10:48:44;8.95;;;4.82;;
56718;SDS011;42597;40.636;0.278;2022-09-12T10:53:52;7.85;;;4.55;;
56718;SDS011;42597;40.636;0.278;2022-09-12T10:56:21;10.38;;;4.55;;
56718;SDS011;42597;40.636;0.278;2022-09-12T11:04:18;7.32;;;4.13;;
56718;SDS011;42597;40.636;0.278;2022-09-12T11:07:16;9.45;;;4.55;;
56718;SDS011;42597;40.636;0.278;2022-09-12T11:14:54;6.13;;;4.93;;
56718;SDS011;42597;40.636;0.278;2022-09-12T11:17:25;5.95;;;4.07;;
56718;SDS011;42597;40.636;0.278;2022-09-12T11:19:55;7.38;;;4.38;;
56718;SDS011;42597;40.636;0.278;2022-09-12T11:26:15;8.73;;;4.15;;
56718;SDS011;42597;40.636;0.278;2022-09-12T11:34:26;26.63;;;7.38;;
56718;SDS011;42597;40.636;0.278;2022-09-12T11:37:33;12.45;;;4.95;;
56718;SDS011;42597;40.636;0.278;2022-09-12T11:46:18;8.82;;;4.40;;
56718;SDS011;42597;40.636;0.278;2022-09-12T11:56:54;9.98;;;4.28;;
56718;SDS011;42597;40.636;0.278;2022-09-12T12:05:21;8.00;;;3.85;;
56718;SDS011;42597;40.636;0.278;2022-09-12T12:07:52;10.07;;;4.47;;
56718;SDS011;42597;40.636;0.278;2022-09-12T12:12:59;6.90;;;3.28;;
56718;SDS011;42597;40.636;0.278;2022-09-12T12:15:29;5.72;;;2.90;;
56718;SDS011;42597;40.636;0.278;2022-09-12T12:20:42;9.77;;;4.05;;
56718;SDS011;42597;40.636;0.278;2022-09-12T12:23:20;6.03;;;3.25;;
56718;SDS011;42597;40.636;0.278;2022-09-12T12:25:51;6.70;;;3.40;;
56718;SDS011;42597;40.636;0.278;2022-09-12T12:31:06;4.35;;;2.67;;
56718;SDS011;42597;40.636;0.278;2022-09-12T12:36:49;8.32;;;3.00;;
56718;SDS011;42597;40.636;0.278;2022-09-12T12:41:56;12.52;;;3.95;;
56718;SDS011;42597;40.636;0.278;2022-09-12T12:45:09;6.38;;;3.22;;
56718;SDS011;42597;40.636;0.278;2022-09-12T12:47:20;7.55;;;2.78;;
56718;SDS011;42597;40.636;0.278;2022-09-12T12:50:31;9.50;;;3.70;;
56718;SDS011;42597;40.636;0.278;2022-09-12T12:53:00;5.05;;;2.88;;
56718;SDS011;42597;40.636;0.278;2022-09-12T12:56:02;8.77;;;3.03;;
56718;SDS011;42597;40.636;0.278;2022-09-12T12:58:32;2.70;;;1.98;;
56718;SDS011;42597;40.636;0.278;2022-09-12T13:01:11;6.20;;;2.70;;
56718;SDS011;42597;40.636;0.278;2022-09-12T13:03:42;8.63;;;3.17;;
56718;SDS011;42597;40.636;0.278;2022-09-12T13:09:08;5.90;;;2.95;;
56718;SDS011;42597;40.636;0.278;2022-09-12T13:11:46;8.63;;;2.42;;
56718;SDS011;42597;40.636;0.278;2022-09-12T13:14:34;8.68;;;3.38;;
56718;SDS011;42597;40.636;0.278;2022-09-12T13:17:17;6.47;;;2.97;;
56718;SDS011;42597;40.636;0.278;2022-09-12T13:19:46;6.95;;;2.60;;
56718;SDS011;42597;40.636;0.278;2022-09-12T13:22:13;7.45;;;2.47;;
56718;SDS011;42597;40.636;0.278;2022-09-12T13:24:43;5.72;;;2.90;;
56718;SDS011;42597;40.636;0.278;2022-09-12T13:27:17;8.57;;;2.90;;
56718;SDS011;42597;40.636;0.278;2022-09-12T13:29:48;12.15;;;3.17;;
56718;SDS011;42597;40.636;0.278;2022-09-12T13:32:14;6.45;;;2.88;;
56718;SDS011;42597;40.636;0.278;2022-09-12T13:40:31;4.70;;;2.67;;
56718;SDS011;42597;40.636;0.278;2022-09-12T13:43:12;5.55;;;2.35;;
56718;SDS011;42597;40.636;0.278;2022-09-12T13:45:39;4.70;;;2.83;;
56718;SDS011;42597;40.636;0.278;2022-09-12T13:48:09;7.53;;;2.35;;
56718;SDS011;42597;40.636;0.278;2022-09-12T13:50:56;4.80;;;2.08;;
56718;SDS011;42597;40.636;0.278;2022-09-12T13:53:25;6.85;;;2.75;;
56718;SDS011;42597;40.636;0.278;2022-09-12T13:55:56;7.85;;;3.17;;
56718;SDS011;42597;40.636;0.278;2022-09-12T13:58:24;6.75;;;2.50;;
56718;SDS011;42597;40.636;0.278;2022-09-12T14:01:05;5.50;;;2.58;;
56718;SDS011;42597;40.636;0.278;2022-09-12T14:03:38;5.03;;;2.17;;
56718;SDS011;42597;40.636;0.278;2022-09-12T14:06:48;7.40;;;2.80;;
56718;SDS011;42597;40.636;0.278;2022-09-12T14:09:22;6.45;;;2.75;;
56718;SDS011;42597;40.636;0.278;2022-09-12T14:11:58;6.18;;;2.38;;
56718;SDS011;42597;40.636;0.278;2022-09-12T14:14:32;5.30;;;2.47;;
56718;SDS011;42597;40.636;0.278;2022-09-12T14:17:00;7.18;;;2.22;;
56718;SDS011;42597;40.636;0.278;2022-09-12T14:19:39;5.90;;;2.38;;
56718;SDS011;42597;40.636;0.278;2022-09-12T14:22:06;4.93;;;2.17;;
56718;SDS011;42597;40.636;0.278;2022-09-12T14:24:36;6.30;;;2.33;;
56718;SDS011;42597;40.636;0.278;2022-09-12T14:27:03;5.55;;;2.08;;
56718;SDS011;42597;40.636;0.278;2022-09-12T14:29:29;5.93;;;2.47;;
56718;SDS011;42597;40.636;0.278;2022-09-12T14:32:00;7.55;;;2.20;;
56718;SDS011;42597;40.636;0.278;2022-09-12T14:34:29;5.25;;;2.35;;
56718;SDS011;42597;40.636;0.278;2022-09-12T14:36:55;7.13;;;2.67;;
56718;SDS011;42597;40.636;0.278;2022-09-12T14:42:06;8.60;;;3.42;;
56718;SDS011;42597;40.636;0.278;2022-09-12T14:44:37;6.70;;;2.83;;
56718;SDS011;42597;40.636;0.278;2022-09-12T14:47:11;3.53;;;1.75;;
56718;SDS011;42597;40.636;0.278;2022-09-12T14:49:43;6.18;;;2.20;;
56718;SDS011;42597;40.636;0.278;2022-09-12T14:55:30;4.15;;;2.08;;
56718;SDS011;42597;40.636;0.278;2022-09-12T15:00:56;10.68;;;2.17;;
56718;SDS011;42597;40.636;0.278;2022-09-12T15:03:31;5.85;;;2.60;;
56718;SDS011;42597;40.636;0.278;2022-09-12T15:06:02;8.95;;;2.47;;
56718;SDS011;42597;40.636;0.278;2022-09-12T15:08:29;7.45;;;2.05;;
56718;SDS011;42597;40.636;0.278;2022-09-12T15:10:57;7.20;;;2.20;;
56718;SDS011;42597;40.636;0.278;2022-09-12T15:13:24;2.67;;;1.65;;
56718;SDS011;42597;40.636;0.278;2022-09-12T15:15:55;6.30;;;1.92;;
56718;SDS011;42597;40.636;0.278;2022-09-12T15:18:24;9.18;;;2.30;;
56718;SDS011;42597;40.636;0.278;2022-09-12T15:20:54;5.40;;;2.42;;
56718;SDS011;42597;40.636;0.278;2022-09-12T15:26:15;3.17;;;1.60;;
56718;SDS011;42597;40.636;0.278;2022-09-12T15:28:42;7.55;;;1.63;;
56718;SDS011;42597;40.636;0.278;2022-09-12T15:33:50;3.10;;;1.60;;
56718;SDS011;42597;40.636;0.278;2022-09-12T15:36:17;5.18;;;1.58;;
56718;SDS011;42597;40.636;0.278;2022-09-12T15:38:45;6.55;;;1.92;;
56718;SDS011;42597;40.636;0.278;2022-09-12T15:41:16;3.53;;;1.42;;
56718;SDS011;42597;40.636;0.278;2022-09-12T15:43:44;2.45;;;1.10;;
56718;SDS011;42597;40.636;0.278;2022-09-12T15:46:11;2.95;;;1.40;;
56718;SDS011;42597;40.636;0.278;2022-09-12T15:48:38;9.18;;;1.92;;
56718;SDS011;42597;40.636;0.278;2022-09-12T15:51:05;5.72;;;1.90;;
56718;SDS011;42597;40.636;0.278;2022-09-12T15:53:51;9.48;;;2.15;;
56718;SDS011;42597;40.636;0.278;2022-09-12T15:56:17;4.53;;;1.50;;
56718;SDS011;42597;40.636;0.278;2022-09-12T15:58:45;2.97;;;1.42;;
56718;SDS011;42597;40.636;0.278;2022-09-12T16:01:11;12.50;;;3.67;;
56718;SDS011;42597;40.636;0.278;2022-09-12T16:03:38;4.28;;;1.80;;
56718;SDS011;42597;40.636;0.278;2022-09-12T16:06:04;5.70;;;2.20;;
56718;SDS011;42597;40.636;0.278;2022-09-12T16:08:32;4.70;;;1.30;;
56718;SDS011;42597;40.636;0.278;2022-09-12T16:11:06;5.50;;;1.75;;
56718;SDS011;42597;40.636;0.278;2022-09-12T16:13:36;7.47;;;1.95;;
56718;SDS011;42597;40.636;0.278;2022-09-12T16:16:01;3.30;;;1.85;;
56718;SDS011;42597;40.636;0.278;2022-09-12T16:18:28;5.07;;;1.70;;
56718;SDS011;42597;40.636;0.278;2022-09-12T16:20:54;3.00;;;1.73;;
56718;SDS011;42597;40.636;0.278;2022-09-12T16:23:20;4.95;;;1.52;;
56718;SDS011;42597;40.636;0.278;2022-09-12T16:26:07;6.13;;;1.75;;
56718;SDS011;42597;40.636;0.278;2022-09-12T16:28:32;4.28;;;1.58;;
56718;SDS011;42597;40.636;0.278;2022-09-12T16:30:58;4.22;;;1.73;;
56718;SDS011;42597;40.636;0.278;2022-09-12T16:33:26;8.98;;;2.72;;
56718;SDS011;42597;40.636;0.278;2022-09-12T16:35:52;4.90;;;1.95;;
56718;SDS011;42597;40.636;0.278;2022-09-12T16:38:25;5.43;;;1.70;;
56718;SDS011;42597;40.636;0.278;2022-09-12T16:40:50;6.45;;;1.88;;
56718;SDS011;42597;40.636;0.278;2022-09-12T16:43:16;4.78;;;1.80;;
56718;SDS011;42597;40.636;0.278;2022-09-12T16:45:42;6.57;;;1.63;;
56718;SDS011;42597;40.636;0.278;2022-09-12T16:48:08;5.35;;;1.55;;
56718;SDS011;42597;40.636;0.278;2022-09-12T16:50:34;5.13;;;2.08;;
56718;SDS011;42597;40.636;0.278;2022-09-12T16:52:59;5.40;;;1.95;;
56718;SDS011;42597;40.636;0.278;2022-09-12T16:55:25;6.78;;;1.85;;
56718;SDS011;42597;40.636;0.278;2022-09-12T16:57:53;4.37;;;2.13;;
56718;SDS011;42597;40.636;0.278;2022-09-12T17:00:19;3.45;;;1.73;;
56718;SDS011;42597;40.636;0.278;2022-09-12T17:02:45;8.90;;;2.50;;
56718;SDS011;42597;40.636;0.278;2022-09-12T17:05:11;3.22;;;1.50;;
56718;SDS011;42597;40.636;0.278;2022-09-12T17:07:40;4.20;;;1.77;;
56718;SDS011;42597;40.636;0.278;2022-09-12T17:10:06;6.68;;;1.60;;
56718;SDS011;42597;40.636;0.278;2022-09-12T17:12:32;5.18;;;1.58;;
56718;SDS011;42597;40.636;0.278;2022-09-12T17:14:58;6.85;;;1.55;;
56718;SDS011;42597;40.636;0.278;2022-09-12T17:17:24;3.13;;;1.60;;
56718;SDS011;42597;40.636;0.278;2022-09-12T17:19:49;6.10;;;1.77;;
56718;SDS011;42597;40.636;0.278;2022-09-12T17:22:15;3.20;;;1.30;;
56718;SDS011;42597;40.636;0.278;2022-09-12T17:24:41;4.00;;;1.45;;
56718;SDS011;42597;40.636;0.278;2022-09-12T17:27:06;3.10;;;1.10;;
56718;SDS011;42597;40.636;0.278;2022-09-12T17:29:32;4.68;;;1.58;;
56718;SDS011;42597;40.636;0.278;2022-09-12T17:31:59;5.00;;;1.23;;
56718;SDS011;42597;40.636;0.278;2022-09-12T17:34:24;7.88;;;2.42;;
56718;SDS011;42597;40.636;0.278;2022-09-12T17:36:50;4.40;;;1.67;;
56718;SDS011;42597;40.636;0.278;2022-09-12T17:39:16;3.97;;;1.60;;
56718;SDS011;42597;40.636;0.278;2022-09-12T17:41:42;3.95;;;1.60;;
56718;SDS011;42597;40.636;0.278;2022-09-12T17:44:10;5.72;;;2.03;;
56718;SDS011;42597;40.636;0.278;2022-09-12T17:46:37;4.70;;;1.90;;
56718;SDS011;42597;40.636;0.278;2022-09-12T17:49:04;4.38;;;1.60;;
56718;SDS011;42597;40.636;0.278;2022-09-12T17:51:31;6.13;;;1.52;;
56718;SDS011;42597;40.636;0.278;2022-09-12T17:53:58;7.63;;;2.40;;
56718;SDS011;42597;40.636;0.278;2022-09-12T17:56:27;7.28;;;1.88;;
56718;SDS011;42597;40.636;0.278;2022-09-12T18:01:21;6.35;;;2.10;;
56718;SDS011;42597;40.636;0.278;2022-09-12T18:04:05;6.25;;;2.25;;
56718;SDS011;42597;40.636;0.278;2022-09-12T18:06:31;7.60;;;2.53;;
56718;SDS011;42597;40.636;0.278;2022-09-12T18:09:04;8.52;;;2.55;;
56718;SDS011;42597;40.636;0.278;2022-09-12T18:11:31;3.47;;;1.63;;
56718;SDS011;42597;40.636;0.278;2022-09-12T18:13:58;4.80;;;1.83;;
56718;SDS011;42597;40.636;0.278;2022-09-12T18:16:24;3.70;;;1.70;;
56718;SDS011;42597;40.636;0.278;2022-09-12T18:18:50;7.80;;;2.42;;
56718;SDS011;42597;40.636;0.278;2022-09-12T18:21:16;5.97;;;2.00;;